sensor_id;sensor_type;location;lat;lon;timestamp;P1;durP1;ratioP1;P2;durP2;ratioP2
29210;SDS011;16250;49.932;10.980;2022-09-17T00:02:20;7.95;;;6.28;;
29210;SDS011;16250;49.932;10.980;2022-09-17T00:04:49;9.63;;;6.68;;
29210;SDS011;16250;49.932;10.980;2022-09-17T00:07:15;7.90;;;6.13;;
29210;SDS011;16250;49.932;10.980;2022-09-17T00:09:41;8.50;;;7.28;;
29210;SDS011;16250;49.932;10.980;2022-09-17T00:12:08;7.82;;;6.95;;
29210;SDS011;16250;49.932;10.980;2022-09-17T00:14:33;7.45;;;6.30;;
29210;SDS011;16250;49.932;10.980;2022-09-17T00:16:59;9.38;;;6.47;;
29210;SDS011;16250;49.932;10.980;2022-09-17T00:19:24;10.13;;;6.70;;
29210;SDS011;16250;49.932;10.980;2022-09-17T00:21:50;7.80;;;6.82;;
29210;SDS011;16250;49.932;10.980;2022-09-17T00:24:19;8.00;;;6.97;;
29210;SDS011;16250;49.932;10.980;2022-09-17T00:26:45;8.80;;;6.07;;
29210;SDS011;16250;49.932;10.980;2022-09-17T00:29:12;6.80;;;5.97;;
29210;SDS011;16250;49.932;10.980;2022-09-17T00:31:38;8.95;;;6.32;;
29210;SDS011;16250;49.932;10.980;2022-09-17T00:34:04;7.78;;;6.43;;
29210;SDS011;16250;49.932;10.980;2022-09-17T00:36:31;9.68;;;6.60;;
29210;SDS011;16250;49.932;10.980;2022-09-17T00:38:59;10.13;;;7.60;;
29210;SDS011;16250;49.932;10.980;2022-09-17T00:41:26;8.30;;;6.47;;
29210;SDS011;16250;49.932;10.980;2022-09-17T00:43:54;9.85;;;7.07;;
29210;SDS011;16250;49.932;10.980;2022-09-17T00:46:28;8.85;;;5.80;;
29210;SDS011;16250;49.932;10.980;2022-09-17T00:49:12;10.18;;;6.85;;
29210;SDS011;16250;49.932;10.980;2022-09-17T00:51:50;10.68;;;7.82;;
29210;SDS011;16250;49.932;10.980;2022-09-17T00:54:21;8.68;;;7.30;;
29210;SDS011;16250;49.932;10.980;2022-09-17T00:56:47;8.07;;;7.03;;
29210;SDS011;16250;49.932;10.980;2022-09-17T00:59:14;9.68;;;6.38;;
29210;SDS011;16250;49.932;10.980;2022-09-17T01:01:40;8.27;;;7.13;;
29210;SDS011;16250;49.932;10.980;2022-09-17T01:04:05;7.95;;;7.15;;
29210;SDS011;16250;49.932;10.980;2022-09-17T01:09:39;8.02;;;7.10;;
29210;SDS011;16250;49.932;10.980;2022-09-17T01:12:22;10.60;;;7.53;;
29210;SDS011;16250;49.932;10.980;2022-09-17T01:29:04;13.23;;;8.35;;
29210;SDS011;16250;49.932;10.980;2022-09-17T01:31:56;9.88;;;7.88;;
29210;SDS011;16250;49.932;10.980;2022-09-17T01:48:09;12.30;;;8.65;;
29210;SDS011;16250;49.932;10.980;2022-09-17T01:53:37;11.88;;;9.02;;
29210;SDS011;16250;49.932;10.980;2022-09-17T01:56:08;13.65;;;8.73;;
29210;SDS011;16250;49.932;10.980;2022-09-17T01:58:40;15.02;;;8.95;;
29210;SDS011;16250;49.932;10.980;2022-09-17T02:01:12;13.57;;;8.82;;
29210;SDS011;16250;49.932;10.980;2022-09-17T02:03:41;17.17;;;9.55;;
29210;SDS011;16250;49.932;10.980;2022-09-17T02:06:16;12.07;;;8.77;;
29210;SDS011;16250;49.932;10.980;2022-09-17T02:08:50;14.55;;;9.18;;
29210;SDS011;16250;49.932;10.980;2022-09-17T02:11:21;13.40;;;9.25;;
29210;SDS011;16250;49.932;10.980;2022-09-17T02:13:49;14.43;;;10.05;;
29210;SDS011;16250;49.932;10.980;2022-09-17T02:16:35;17.55;;;9.57;;
29210;SDS011;16250;49.932;10.980;2022-09-17T02:19:12;14.57;;;9.48;;
29210;SDS011;16250;49.932;10.980;2022-09-17T02:24:34;13.88;;;9.57;;
29210;SDS011;16250;49.932;10.980;2022-09-17T02:29:56;15.80;;;9.45;;
29210;SDS011;16250;49.932;10.980;2022-09-17T02:32:22;13.98;;;9.32;;
29210;SDS011;16250;49.932;10.980;2022-09-17T02:34:48;16.63;;;9.48;;
29210;SDS011;16250;49.932;10.980;2022-09-17T02:37:14;12.05;;;9.15;;
29210;SDS011;16250;49.932;10.980;2022-09-17T02:39:40;14.82;;;9.48;;
29210;SDS011;16250;49.932;10.980;2022-09-17T02:47:54;14.90;;;9.45;;
29210;SDS011;16250;49.932;10.980;2022-09-17T02:53:06;13.63;;;9.20;;
29210;SDS011;16250;49.932;10.980;2022-09-17T02:56:00;14.32;;;8.50;;
29210;SDS011;16250;49.932;10.980;2022-09-17T03:01:32;12.57;;;8.70;;
29210;SDS011;16250;49.932;10.980;2022-09-17T03:04:04;12.73;;;8.70;;
29210;SDS011;16250;49.932;10.980;2022-09-17T03:06:33;14.98;;;8.95;;
29210;SDS011;16250;49.932;10.980;2022-09-17T03:08:59;12.18;;;8.23;;
29210;SDS011;16250;49.932;10.980;2022-09-17T03:11:25;10.60;;;8.23;;
29210;SDS011;16250;49.932;10.980;2022-09-17T03:13:50;11.85;;;8.93;;
29210;SDS011;16250;49.932;10.980;2022-09-17T03:16:16;13.02;;;8.57;;
29210;SDS011;16250;49.932;10.980;2022-09-17T03:18:42;13.63;;;8.52;;
29210;SDS011;16250;49.932;10.980;2022-09-17T03:21:07;14.95;;;8.25;;
29210;SDS011;16250;49.932;10.980;2022-09-17T03:23:33;12.10;;;8.23;;
29210;SDS011;16250;49.932;10.980;2022-09-17T03:25:58;13.13;;;8.23;;
29210;SDS011;16250;49.932;10.980;2022-09-17T03:28:24;13.55;;;8.73;;
29210;SDS011;16250;49.932;10.980;2022-09-17T03:30:51;14.02;;;7.90;;
29210;SDS011;16250;49.932;10.980;2022-09-17T03:33:17;11.95;;;8.10;;
29210;SDS011;16250;49.932;10.980;2022-09-17T03:35:43;15.75;;;8.10;;
29210;SDS011;16250;49.932;10.980;2022-09-17T03:38:10;13.38;;;8.18;;
29210;SDS011;16250;49.932;10.980;2022-09-17T03:40:35;12.32;;;8.48;;
29210;SDS011;16250;49.932;10.980;2022-09-17T03:43:01;11.98;;;8.77;;
29210;SDS011;16250;49.932;10.980;2022-09-17T03:45:27;13.23;;;8.25;;
29210;SDS011;16250;49.932;10.980;2022-09-17T03:47:52;12.38;;;7.88;;
29210;SDS011;16250;49.932;10.980;2022-09-17T03:50:18;14.48;;;8.30;;
29210;SDS011;16250;49.932;10.980;2022-09-17T03:52:43;12.55;;;8.60;;
29210;SDS011;16250;49.932;10.980;2022-09-17T03:55:09;13.75;;;8.25;;
29210;SDS011;16250;49.932;10.980;2022-09-17T03:57:35;12.68;;;8.57;;
29210;SDS011;16250;49.932;10.980;2022-09-17T04:00:01;12.70;;;8.65;;
29210;SDS011;16250;49.932;10.980;2022-09-17T04:02:28;15.85;;;8.65;;
29210;SDS011;16250;49.932;10.980;2022-09-17T04:04:53;10.27;;;8.38;;
29210;SDS011;16250;49.932;10.980;2022-09-17T04:07:19;14.10;;;8.52;;
29210;SDS011;16250;49.932;10.980;2022-09-17T04:09:45;14.10;;;8.80;;
29210;SDS011;16250;49.932;10.980;2022-09-17T04:12:10;14.50;;;9.18;;
29210;SDS011;16250;49.932;10.980;2022-09-17T04:14:36;13.90;;;8.85;;
29210;SDS011;16250;49.932;10.980;2022-09-17T04:17:01;12.05;;;7.90;;
29210;SDS011;16250;49.932;10.980;2022-09-17T04:19:27;13.57;;;8.35;;
29210;SDS011;16250;49.932;10.980;2022-09-17T04:21:52;12.45;;;8.75;;
29210;SDS011;16250;49.932;10.980;2022-09-17T04:24:18;14.57;;;8.30;;
29210;SDS011;16250;49.932;10.980;2022-09-17T04:26:44;14.00;;;8.63;;
29210;SDS011;16250;49.932;10.980;2022-09-17T04:29:09;14.10;;;9.02;;
29210;SDS011;16250;49.932;10.980;2022-09-17T04:31:35;12.45;;;8.68;;
29210;SDS011;16250;49.932;10.980;2022-09-17T04:34:00;13.40;;;8.88;;
29210;SDS011;16250;49.932;10.980;2022-09-17T04:36:26;13.68;;;9.27;;
29210;SDS011;16250;49.932;10.980;2022-09-17T04:38:51;13.82;;;9.82;;
29210;SDS011;16250;49.932;10.980;2022-09-17T04:41:17;14.10;;;9.50;;
29210;SDS011;16250;49.932;10.980;2022-09-17T04:43:43;14.02;;;10.15;;
29210;SDS011;16250;49.932;10.980;2022-09-17T04:46:09;11.18;;;9.52;;
29210;SDS011;16250;49.932;10.980;2022-09-17T04:48:34;16.58;;;9.60;;
29210;SDS011;16250;49.932;10.980;2022-09-17T04:51:01;13.25;;;9.93;;
29210;SDS011;16250;49.932;10.980;2022-09-17T04:53:26;14.95;;;9.95;;
29210;SDS011;16250;49.932;10.980;2022-09-17T04:55:52;14.93;;;10.18;;
29210;SDS011;16250;49.932;10.980;2022-09-17T04:58:17;15.80;;;10.63;;
29210;SDS011;16250;49.932;10.980;2022-09-17T05:00:43;11.50;;;8.73;;
29210;SDS011;16250;49.932;10.980;2022-09-17T05:03:08;18.38;;;10.65;;
29210;SDS011;16250;49.932;10.980;2022-09-17T05:05:34;14.73;;;9.70;;
29210;SDS011;16250;49.932;10.980;2022-09-17T05:07:59;13.80;;;9.52;;
29210;SDS011;16250;49.932;10.980;2022-09-17T05:10:25;13.63;;;9.57;;
29210;SDS011;16250;49.932;10.980;2022-09-17T05:12:51;15.27;;;10.05;;
29210;SDS011;16250;49.932;10.980;2022-09-17T05:15:18;15.55;;;10.07;;
29210;SDS011;16250;49.932;10.980;2022-09-17T05:17:45;13.27;;;9.32;;
29210;SDS011;16250;49.932;10.980;2022-09-17T05:20:11;14.15;;;9.18;;
29210;SDS011;16250;49.932;10.980;2022-09-17T05:22:41;14.07;;;10.30;;
29210;SDS011;16250;49.932;10.980;2022-09-17T05:25:08;14.05;;;10.68;;
29210;SDS011;16250;49.932;10.980;2022-09-17T05:27:33;13.85;;;10.57;;
29210;SDS011;16250;49.932;10.980;2022-09-17T05:29:59;12.52;;;9.02;;
29210;SDS011;16250;49.932;10.980;2022-09-17T05:32:24;12.25;;;8.73;;
29210;SDS011;16250;49.932;10.980;2022-09-17T05:34:50;8.25;;;6.40;;
29210;SDS011;16250;49.932;10.980;2022-09-17T05:37:15;5.90;;;5.30;;
29210;SDS011;16250;49.932;10.980;2022-09-17T05:39:41;6.63;;;5.25;;
29210;SDS011;16250;49.932;10.980;2022-09-17T05:42:07;8.13;;;5.72;;
29210;SDS011;16250;49.932;10.980;2022-09-17T05:44:32;11.23;;;6.60;;
29210;SDS011;16250;49.932;10.980;2022-09-17T05:46:58;8.63;;;5.72;;
29210;SDS011;16250;49.932;10.980;2022-09-17T05:49:23;10.07;;;7.20;;
29210;SDS011;16250;49.932;10.980;2022-09-17T05:51:49;9.98;;;6.22;;
29210;SDS011;16250;49.932;10.980;2022-09-17T05:54:15;8.52;;;6.45;;
29210;SDS011;16250;49.932;10.980;2022-09-17T05:56:41;7.70;;;5.68;;
29210;SDS011;16250;49.932;10.980;2022-09-17T05:59:06;5.80;;;4.18;;
29210;SDS011;16250;49.932;10.980;2022-09-17T06:01:32;9.98;;;6.38;;
29210;SDS011;16250;49.932;10.980;2022-09-17T06:03:57;7.13;;;5.35;;
29210;SDS011;16250;49.932;10.980;2022-09-17T06:06:23;8.07;;;6.15;;
29210;SDS011;16250;49.932;10.980;2022-09-17T06:08:49;8.50;;;5.47;;
29210;SDS011;16250;49.932;10.980;2022-09-17T06:11:14;6.15;;;5.13;;
29210;SDS011;16250;49.932;10.980;2022-09-17T06:13:40;7.30;;;4.82;;
29210;SDS011;16250;49.932;10.980;2022-09-17T06:16:07;7.65;;;4.97;;
29210;SDS011;16250;49.932;10.980;2022-09-17T06:18:33;5.05;;;4.40;;
29210;SDS011;16250;49.932;10.980;2022-09-17T06:20:59;5.85;;;4.55;;
29210;SDS011;16250;49.932;10.980;2022-09-17T06:23:26;7.85;;;5.28;;
29210;SDS011;16250;49.932;10.980;2022-09-17T06:25:56;7.53;;;4.82;;
29210;SDS011;16250;49.932;10.980;2022-09-17T06:28:23;5.18;;;4.53;;
29210;SDS011;16250;49.932;10.980;2022-09-17T06:30:49;8.80;;;5.70;;
29210;SDS011;16250;49.932;10.980;2022-09-17T06:33:18;6.90;;;5.57;;
29210;SDS011;16250;49.932;10.980;2022-09-17T06:35:44;6.25;;;5.25;;
29210;SDS011;16250;49.932;10.980;2022-09-17T06:38:10;7.68;;;5.63;;
29210;SDS011;16250;49.932;10.980;2022-09-17T06:40:35;7.93;;;5.63;;
29210;SDS011;16250;49.932;10.980;2022-09-17T06:43:01;6.57;;;5.18;;
29210;SDS011;16250;49.932;10.980;2022-09-17T06:45:27;10.20;;;6.72;;
29210;SDS011;16250;49.932;10.980;2022-09-17T06:47:53;10.63;;;6.55;;
29210;SDS011;16250;49.932;10.980;2022-09-17T06:50:18;8.32;;;6.53;;
29210;SDS011;16250;49.932;10.980;2022-09-17T06:52:50;7.75;;;7.03;;
29210;SDS011;16250;49.932;10.980;2022-09-17T06:55:17;8.65;;;6.78;;
29210;SDS011;16250;49.932;10.980;2022-09-17T06:57:43;8.57;;;6.63;;
29210;SDS011;16250;49.932;10.980;2022-09-17T07:00:09;8.68;;;6.03;;
29210;SDS011;16250;49.932;10.980;2022-09-17T07:02:36;9.82;;;7.90;;
29210;SDS011;16250;49.932;10.980;2022-09-17T07:05:02;11.65;;;7.80;;
29210;SDS011;16250;49.932;10.980;2022-09-17T07:07:28;10.70;;;9.57;;
29210;SDS011;16250;49.932;10.980;2022-09-17T07:09:53;14.02;;;8.13;;
29210;SDS011;16250;49.932;10.980;2022-09-17T07:12:19;11.80;;;9.18;;
29210;SDS011;16250;49.932;10.980;2022-09-17T07:14:45;10.13;;;7.15;;
29210;SDS011;16250;49.932;10.980;2022-09-17T07:17:11;13.10;;;8.10;;
29210;SDS011;16250;49.932;10.980;2022-09-17T07:19:38;11.98;;;8.10;;
29210;SDS011;16250;49.932;10.980;2022-09-17T07:22:03;16.90;;;10.05;;
29210;SDS011;16250;49.932;10.980;2022-09-17T07:24:29;10.52;;;7.25;;
29210;SDS011;16250;49.932;10.980;2022-09-17T07:26:55;9.25;;;7.47;;
29210;SDS011;16250;49.932;10.980;2022-09-17T07:29:21;9.75;;;7.25;;
29210;SDS011;16250;49.932;10.980;2022-09-17T07:31:50;11.07;;;7.07;;
29210;SDS011;16250;49.932;10.980;2022-09-17T07:34:16;11.07;;;7.28;;
29210;SDS011;16250;49.932;10.980;2022-09-17T07:36:42;11.13;;;6.90;;
29210;SDS011;16250;49.932;10.980;2022-09-17T07:39:08;10.65;;;7.03;;
29210;SDS011;16250;49.932;10.980;2022-09-17T07:41:35;11.57;;;7.05;;
29210;SDS011;16250;49.932;10.980;2022-09-17T07:44:01;12.70;;;7.38;;
29210;SDS011;16250;49.932;10.980;2022-09-17T07:46:27;10.02;;;7.25;;
29210;SDS011;16250;49.932;10.980;2022-09-17T07:48:53;13.13;;;7.40;;
29210;SDS011;16250;49.932;10.980;2022-09-17T07:51:23;8.63;;;6.97;;
29210;SDS011;16250;49.932;10.980;2022-09-17T07:53:53;10.52;;;7.75;;
29210;SDS011;16250;49.932;10.980;2022-09-17T07:56:20;12.13;;;7.55;;
29210;SDS011;16250;49.932;10.980;2022-09-17T07:58:45;12.63;;;7.03;;
29210;SDS011;16250;49.932;10.980;2022-09-17T08:01:11;10.70;;;7.38;;
29210;SDS011;16250;49.932;10.980;2022-09-17T08:03:40;14.27;;;7.18;;
29210;SDS011;16250;49.932;10.980;2022-09-17T08:08:34;12.43;;;7.55;;
29210;SDS011;16250;49.932;10.980;2022-09-17T08:11:07;11.90;;;7.38;;
29210;SDS011;16250;49.932;10.980;2022-09-17T08:13:38;13.65;;;7.10;;
29210;SDS011;16250;49.932;10.980;2022-09-17T08:16:08;15.07;;;6.95;;
29210;SDS011;16250;49.932;10.980;2022-09-17T08:18:37;18.40;;;7.15;;
29210;SDS011;16250;49.932;10.980;2022-09-17T08:21:04;15.80;;;7.35;;
29210;SDS011;16250;49.932;10.980;2022-09-17T08:23:33;15.65;;;6.43;;
29210;SDS011;16250;49.932;10.980;2022-09-17T08:26:00;13.77;;;7.10;;
29210;SDS011;16250;49.932;10.980;2022-09-17T08:28:27;13.10;;;6.85;;
29210;SDS011;16250;49.932;10.980;2022-09-17T08:30:58;11.13;;;6.30;;
29210;SDS011;16250;49.932;10.980;2022-09-17T08:33:25;9.98;;;5.55;;
29210;SDS011;16250;49.932;10.980;2022-09-17T08:35:51;11.98;;;6.40;;
29210;SDS011;16250;49.932;10.980;2022-09-17T08:38:18;12.13;;;5.80;;
29210;SDS011;16250;49.932;10.980;2022-09-17T08:40:50;15.32;;;6.85;;
29210;SDS011;16250;49.932;10.980;2022-09-17T08:43:19;11.10;;;5.50;;
29210;SDS011;16250;49.932;10.980;2022-09-17T08:45:50;15.18;;;5.95;;
29210;SDS011;16250;49.932;10.980;2022-09-17T08:48:17;12.27;;;5.93;;
29210;SDS011;16250;49.932;10.980;2022-09-17T08:50:43;10.57;;;5.95;;
29210;SDS011;16250;49.932;10.980;2022-09-17T08:56:20;10.48;;;5.63;;
29210;SDS011;16250;49.932;10.980;2022-09-17T09:01:26;16.90;;;6.83;;
29210;SDS011;16250;49.932;10.980;2022-09-17T09:07:07;14.68;;;6.85;;
29210;SDS011;16250;49.932;10.980;2022-09-17T09:09:39;14.52;;;6.28;;
29210;SDS011;16250;49.932;10.980;2022-09-17T09:12:12;14.98;;;6.03;;
29210;SDS011;16250;49.932;10.980;2022-09-17T09:14:47;12.95;;;6.10;;
29210;SDS011;16250;49.932;10.980;2022-09-17T09:17:17;14.18;;;6.35;;
29210;SDS011;16250;49.932;10.980;2022-09-17T09:19:45;13.02;;;6.55;;
29210;SDS011;16250;49.932;10.980;2022-09-17T09:22:19;12.35;;;6.15;;
29210;SDS011;16250;49.932;10.980;2022-09-17T09:25:17;12.68;;;5.20;;
29210;SDS011;16250;49.932;10.980;2022-09-17T09:33:16;12.52;;;5.47;;
29210;SDS011;16250;49.932;10.980;2022-09-17T09:35:46;13.70;;;5.13;;
29210;SDS011;16250;49.932;10.980;2022-09-17T09:38:24;15.48;;;5.30;;
29210;SDS011;16250;49.932;10.980;2022-09-17T09:41:05;11.00;;;4.78;;
29210;SDS011;16250;49.932;10.980;2022-09-17T09:43:45;16.92;;;6.03;;
29210;SDS011;16250;49.932;10.980;2022-09-17T09:49:00;15.45;;;5.28;;
29210;SDS011;16250;49.932;10.980;2022-09-17T09:54:21;15.05;;;6.10;;
29210;SDS011;16250;49.932;10.980;2022-09-17T09:57:09;12.63;;;4.38;;
29210;SDS011;16250;49.932;10.980;2022-09-17T09:59:41;11.90;;;4.50;;
29210;SDS011;16250;49.932;10.980;2022-09-17T10:02:07;14.68;;;3.88;;
29210;SDS011;16250;49.932;10.980;2022-09-17T10:04:34;11.00;;;4.15;;
29210;SDS011;16250;49.932;10.980;2022-09-17T10:09:33;16.33;;;5.38;;
29210;SDS011;16250;49.932;10.980;2022-09-17T10:12:14;11.93;;;5.57;;
29210;SDS011;16250;49.932;10.980;2022-09-17T10:14:42;12.75;;;4.38;;
29210;SDS011;16250;49.932;10.980;2022-09-17T10:17:18;10.95;;;4.63;;
29210;SDS011;16250;49.932;10.980;2022-09-17T10:19:45;12.10;;;4.10;;
29210;SDS011;16250;49.932;10.980;2022-09-17T10:22:43;11.20;;;3.95;;
29210;SDS011;16250;49.932;10.980;2022-09-17T10:27:55;11.75;;;4.05;;
29210;SDS011;16250;49.932;10.980;2022-09-17T10:30:23;15.02;;;4.47;;
29210;SDS011;16250;49.932;10.980;2022-09-17T10:33:13;11.15;;;4.00;;
29210;SDS011;16250;49.932;10.980;2022-09-17T10:35:38;12.73;;;4.50;;
29210;SDS011;16250;49.932;10.980;2022-09-17T10:38:03;11.20;;;3.95;;
29210;SDS011;16250;49.932;10.980;2022-09-17T10:40:29;13.18;;;3.95;;
29210;SDS011;16250;49.932;10.980;2022-09-17T10:45:39;12.63;;;3.30;;
29210;SDS011;16250;49.932;10.980;2022-09-17T10:48:13;11.27;;;4.00;;
29210;SDS011;16250;49.932;10.980;2022-09-17T10:50:46;9.52;;;3.90;;
29210;SDS011;16250;49.932;10.980;2022-09-17T10:53:14;9.55;;;3.95;;
29210;SDS011;16250;49.932;10.980;2022-09-17T11:26:10;8.75;;;3.00;;
29210;SDS011;16250;49.932;10.980;2022-09-17T11:28:23;9.38;;;3.25;;
29210;SDS011;16250;49.932;10.980;2022-09-17T11:33:44;6.22;;;2.53;;
29210;SDS011;16250;49.932;10.980;2022-09-17T11:36:31;6.72;;;2.78;;
29210;SDS011;16250;49.932;10.980;2022-09-17T11:39:15;8.50;;;3.03;;
29210;SDS011;16250;49.932;10.980;2022-09-17T11:41:56;7.28;;;2.60;;
29210;SDS011;16250;49.932;10.980;2022-09-17T11:44:26;7.97;;;2.60;;
29210;SDS011;16250;49.932;10.980;2022-09-17T11:49:44;6.78;;;2.50;;
29210;SDS011;16250;49.932;10.980;2022-09-17T11:57:56;3.85;;;1.92;;
29210;SDS011;16250;49.932;10.980;2022-09-17T12:00:25;6.57;;;2.10;;
29210;SDS011;16250;49.932;10.980;2022-09-17T12:02:57;7.65;;;2.58;;
29210;SDS011;16250;49.932;10.980;2022-09-17T12:05:26;5.68;;;2.47;;
29210;SDS011;16250;49.932;10.980;2022-09-17T12:07:59;5.78;;;2.42;;
29210;SDS011;16250;49.932;10.980;2022-09-17T12:13:22;6.40;;;3.10;;
29210;SDS011;16250;49.932;10.980;2022-09-17T12:21:30;5.90;;;2.40;;
29210;SDS011;16250;49.932;10.980;2022-09-17T12:24:08;9.55;;;2.85;;
29210;SDS011;16250;49.932;10.980;2022-09-17T12:26:57;8.75;;;2.97;;
29210;SDS011;16250;49.932;10.980;2022-09-17T12:35:46;7.53;;;2.80;;
29210;SDS011;16250;49.932;10.980;2022-09-17T12:44:18;5.30;;;2.17;;
29210;SDS011;16250;49.932;10.980;2022-09-17T12:47:11;5.50;;;2.40;;
29210;SDS011;16250;49.932;10.980;2022-09-17T13:01:32;6.65;;;2.63;;
29210;SDS011;16250;49.932;10.980;2022-09-17T13:17:42;4.25;;;2.40;;
29210;SDS011;16250;49.932;10.980;2022-09-17T13:20:14;4.47;;;2.10;;
29210;SDS011;16250;49.932;10.980;2022-09-17T13:22:48;5.25;;;2.60;;
29210;SDS011;16250;49.932;10.980;2022-09-17T13:25:16;3.67;;;2.47;;
29210;SDS011;16250;49.932;10.980;2022-09-17T13:27:43;3.53;;;2.33;;
29210;SDS011;16250;49.932;10.980;2022-09-17T13:30:11;4.75;;;2.40;;
29210;SDS011;16250;49.932;10.980;2022-09-17T13:32:41;3.33;;;2.10;;
29210;SDS011;16250;49.932;10.980;2022-09-17T13:37:33;4.65;;;2.72;;
29210;SDS011;16250;49.932;10.980;2022-09-17T13:40:03;5.93;;;2.45;;
29210;SDS011;16250;49.932;10.980;2022-09-17T13:42:31;6.28;;;2.80;;
29210;SDS011;16250;49.932;10.980;2022-09-17T13:47:39;3.95;;;2.38;;
29210;SDS011;16250;49.932;10.980;2022-09-17T13:50:23;5.45;;;2.17;;
29210;SDS011;16250;49.932;10.980;2022-09-17T13:52:56;4.28;;;2.17;;
29210;SDS011;16250;49.932;10.980;2022-09-17T13:55:31;5.22;;;2.30;;
29210;SDS011;16250;49.932;10.980;2022-09-17T13:58:36;5.07;;;2.50;;
29210;SDS011;16250;49.932;10.980;2022-09-17T14:01:11;4.93;;;2.20;;
29210;SDS011;16250;49.932;10.980;2022-09-17T14:13:53;7.38;;;2.53;;
29210;SDS011;16250;49.932;10.980;2022-09-17T14:16:30;3.78;;;2.33;;
29210;SDS011;16250;49.932;10.980;2022-09-17T14:21:56;5.07;;;1.85;;
29210;SDS011;16250;49.932;10.980;2022-09-17T14:24:33;4.13;;;2.00;;
29210;SDS011;16250;49.932;10.980;2022-09-17T14:32:26;5.28;;;2.08;;
29210;SDS011;16250;49.932;10.980;2022-09-17T14:35:01;4.00;;;1.90;;
29210;SDS011;16250;49.932;10.980;2022-09-17T14:37:36;6.93;;;2.00;;
29210;SDS011;16250;49.932;10.980;2022-09-17T14:40:13;5.22;;;1.60;;
29210;SDS011;16250;49.932;10.980;2022-09-17T14:42:42;3.80;;;1.67;;
29210;SDS011;16250;49.932;10.980;2022-09-17T14:45:21;6.57;;;2.33;;
29210;SDS011;16250;49.932;10.980;2022-09-17T14:48:15;7.20;;;2.20;;
29210;SDS011;16250;49.932;10.980;2022-09-17T14:50:51;4.90;;;1.90;;
29210;SDS011;16250;49.932;10.980;2022-09-17T14:53:18;4.35;;;2.10;;
29210;SDS011;16250;49.932;10.980;2022-09-17T14:55:48;5.78;;;2.00;;
29210;SDS011;16250;49.932;10.980;2022-09-17T14:58:34;2.88;;;1.88;;
29210;SDS011;16250;49.932;10.980;2022-09-17T15:01:04;3.92;;;2.03;;
29210;SDS011;16250;49.932;10.980;2022-09-17T15:03:30;4.78;;;2.10;;
29210;SDS011;16250;49.932;10.980;2022-09-17T15:05:55;5.75;;;2.00;;
29210;SDS011;16250;49.932;10.980;2022-09-17T15:08:22;2.70;;;1.90;;
29210;SDS011;16250;49.932;10.980;2022-09-17T15:10:56;3.15;;;1.90;;
29210;SDS011;16250;49.932;10.980;2022-09-17T15:13:26;5.78;;;1.92;;
29210;SDS011;16250;49.932;10.980;2022-09-17T15:16:32;5.05;;;2.15;;
29210;SDS011;16250;49.932;10.980;2022-09-17T15:19:00;3.78;;;1.88;;
29210;SDS011;16250;49.932;10.980;2022-09-17T15:21:34;4.22;;;2.40;;
29210;SDS011;16250;49.932;10.980;2022-09-17T15:26:53;5.83;;;2.97;;
29210;SDS011;16250;49.932;10.980;2022-09-17T15:29:23;4.05;;;2.00;;
29210;SDS011;16250;49.932;10.980;2022-09-17T15:31:52;2.65;;;1.45;;
29210;SDS011;16250;49.932;10.980;2022-09-17T15:34:18;8.48;;;3.10;;
29210;SDS011;16250;49.932;10.980;2022-09-17T15:37:18;7.03;;;2.83;;
29210;SDS011;16250;49.932;10.980;2022-09-17T15:39:46;6.25;;;2.33;;
29210;SDS011;16250;49.932;10.980;2022-09-17T15:42:26;3.72;;;2.33;;
29210;SDS011;16250;49.932;10.980;2022-09-17T15:45:36;6.13;;;2.47;;
29210;SDS011;16250;49.932;10.980;2022-09-17T15:50:16;6.75;;;2.53;;
29210;SDS011;16250;49.932;10.980;2022-09-17T15:52:44;4.97;;;1.90;;
29210;SDS011;16250;49.932;10.980;2022-09-17T15:55:26;2.92;;;2.03;;
29210;SDS011;16250;49.932;10.980;2022-09-17T15:57:54;5.07;;;1.77;;
29210;SDS011;16250;49.932;10.980;2022-09-17T16:00:21;6.68;;;2.00;;
29210;SDS011;16250;49.932;10.980;2022-09-17T16:02:46;6.45;;;1.98;;
29210;SDS011;16250;49.932;10.980;2022-09-17T16:07:38;3.83;;;1.23;;
29210;SDS011;16250;49.932;10.980;2022-09-17T16:10:04;3.33;;;1.50;;
29210;SDS011;16250;49.932;10.980;2022-09-17T16:12:31;5.63;;;1.50;;
29210;SDS011;16250;49.932;10.980;2022-09-17T16:14:58;3.72;;;1.30;;
29210;SDS011;16250;49.932;10.980;2022-09-17T16:17:33;4.47;;;1.50;;
29210;SDS011;16250;49.932;10.980;2022-09-17T16:20:14;4.03;;;1.67;;
29210;SDS011;16250;49.932;10.980;2022-09-17T16:22:48;3.92;;;1.55;;
29210;SDS011;16250;49.932;10.980;2022-09-17T16:25:18;3.28;;;1.42;;
29210;SDS011;16250;49.932;10.980;2022-09-17T16:30:49;3.13;;;1.25;;
29210;SDS011;16250;49.932;10.980;2022-09-17T16:33:15;3.28;;;1.00;;
29210;SDS011;16250;49.932;10.980;2022-09-17T16:35:42;2.67;;;1.20;;
29210;SDS011;16250;49.932;10.980;2022-09-17T16:38:08;2.97;;;1.00;;
29210;SDS011;16250;49.932;10.980;2022-09-17T16:40:38;2.70;;;1.20;;
29210;SDS011;16250;49.932;10.980;2022-09-17T16:43:09;2.78;;;1.55;;
29210;SDS011;16250;49.932;10.980;2022-09-17T16:45:34;2.17;;;1.00;;
29210;SDS011;16250;49.932;10.980;2022-09-17T16:48:02;3.30;;;1.23;;
29210;SDS011;16250;49.932;10.980;2022-09-17T16:50:28;2.65;;;1.25;;
29210;SDS011;16250;49.932;10.980;2022-09-17T16:52:54;1.75;;;0.93;;
29210;SDS011;16250;49.932;10.980;2022-09-17T16:55:19;3.28;;;1.38;;
29210;SDS011;16250;49.932;10.980;2022-09-17T16:57:45;3.53;;;1.10;;
29210;SDS011;16250;49.932;10.980;2022-09-17T17:00:12;3.88;;;1.20;;
29210;SDS011;16250;49.932;10.980;2022-09-17T17:02:43;2.72;;;1.10;;
29210;SDS011;16250;49.932;10.980;2022-09-17T17:05:14;3.53;;;1.20;;
29210;SDS011;16250;49.932;10.980;2022-09-17T17:07:40;2.65;;;0.95;;
29210;SDS011;16250;49.932;10.980;2022-09-17T17:10:06;3.95;;;1.40;;
29210;SDS011;16250;49.932;10.980;2022-09-17T17:12:33;2.80;;;1.20;;
29210;SDS011;16250;49.932;10.980;2022-09-17T17:14:59;1.80;;;1.00;;
29210;SDS011;16250;49.932;10.980;2022-09-17T17:17:26;3.70;;;1.30;;
29210;SDS011;16250;49.932;10.980;2022-09-17T17:19:52;3.85;;;1.20;;
29210;SDS011;16250;49.932;10.980;2022-09-17T17:22:18;3.55;;;1.65;;
29210;SDS011;16250;49.932;10.980;2022-09-17T17:24:44;3.63;;;1.48;;
29210;SDS011;16250;49.932;10.980;2022-09-17T17:27:09;1.98;;;1.10;;
29210;SDS011;16250;49.932;10.980;2022-09-17T17:29:35;4.38;;;1.50;;
29210;SDS011;16250;49.932;10.980;2022-09-17T17:32:01;2.10;;;1.27;;
29210;SDS011;16250;49.932;10.980;2022-09-17T17:34:27;3.58;;;1.20;;
29210;SDS011;16250;49.932;10.980;2022-09-17T17:36:54;2.95;;;1.20;;
29210;SDS011;16250;49.932;10.980;2022-09-17T17:39:20;5.15;;;1.48;;
29210;SDS011;16250;49.932;10.980;2022-09-17T17:41:46;1.15;;;1.02;;
29210;SDS011;16250;49.932;10.980;2022-09-17T17:44:11;2.78;;;1.13;;
29210;SDS011;16250;49.932;10.980;2022-09-17T17:46:37;2.90;;;1.30;;
29210;SDS011;16250;49.932;10.980;2022-09-17T17:49:04;1.98;;;1.08;;
29210;SDS011;16250;49.932;10.980;2022-09-17T17:51:30;1.92;;;1.10;;
29210;SDS011;16250;49.932;10.980;2022-09-17T17:53:55;1.48;;;0.98;;
29210;SDS011;16250;49.932;10.980;2022-09-17T17:56:21;3.08;;;1.20;;
29210;SDS011;16250;49.932;10.980;2022-09-17T17:58:47;1.10;;;1.00;;
29210;SDS011;16250;49.932;10.980;2022-09-17T18:01:18;2.13;;;0.85;;
29210;SDS011;16250;49.932;10.980;2022-09-17T18:03:46;2.65;;;1.10;;
29210;SDS011;16250;49.932;10.980;2022-09-17T18:06:12;2.50;;;1.10;;